Time;durP1;ratioP1;P1;durP2;ratioP2;P2;SDS_P1;SDS_P2;PMS_P1;PMS_P2;Temp;Humidity;BMP_temperature;BMP_pressure;BME280_temperature;BME280_humidity;BME280_pressure;Samples;Min_cycle;Max_cycle;Signal;HPM_P1;HPM_P2
2024/01/14 00:00:37;;;;;;;27.77;15.30;;;;;;;-142.91;100.00;56616.03;5052080;28;20691;-78
2024/01/14 00:03:05;;;;;;;24.73;12.33;;;;;;;-142.91;100.00;56616.03;5053110;28;20291;-77
2024/01/14 00:05:32;;;;;;;28.80;12.20;;;;;;;-142.91;100.00;56616.03;5055610;28;20219;-78
2024/01/14 00:07:58;;;;;;;33.33;14.07;;;;;;;-142.91;100.00;56616.03;5058614;28;20316;-78
2024/01/14 00:10:25;;;;;;;27.53;13.33;;;;;;;-142.91;100.00;56616.03;5056126;28;20283;-77
2024/01/14 00:12:51;;;;;;;25.67;12.40;;;;;;;-142.91;100.00;56616.03;5055715;28;20260;-76
2024/01/14 00:15:19;;;;;;;29.90;14.43;;;;;;;-142.91;100.00;56616.03;5055013;28;20297;-77
2024/01/14 00:17:46;;;;;;;28.77;12.85;;;;;;;-142.91;100.00;56616.03;5058642;28;20215;-76
2024/01/14 00:20:14;;;;;;;29.55;14.05;;;;;;;-142.91;100.00;56616.03;5059934;28;20244;-76
2024/01/14 00:22:40;;;;;;;27.20;13.55;;;;;;;-142.91;100.00;56616.03;5050884;28;20310;-77
2024/01/14 00:25:08;;;;;;;30.83;14.03;;;;;;;-142.91;100.00;56616.03;5058369;28;20225;-76
2024/01/14 00:27:34;;;;;;;30.70;15.63;;;;;;;-142.91;100.00;56616.03;5047374;28;20657;-76
2024/01/14 00:30:01;;;;;;;42.00;17.33;;;;;;;-142.91;100.00;56616.03;5050688;28;20207;-77
2024/01/14 00:32:28;;;;;;;34.58;16.67;;;;;;;-142.91;100.00;56616.03;5049263;28;20275;-74
2024/01/14 00:34:54;;;;;;;37.90;17.83;;;;;;;-142.91;100.00;56616.03;5053222;28;20241;-78
2024/01/14 00:37:23;;;;;;;38.57;16.77;;;;;;;-142.91;100.00;56616.03;5048991;28;20295;-78
2024/01/14 00:39:50;;;;;;;37.03;17.40;;;;;;;-142.91;100.00;56616.03;5048033;28;20227;-73
2024/01/14 00:42:16;;;;;;;37.20;16.67;;;;;;;-142.91;100.00;56616.03;5054377;28;20199;-78
2024/01/14 00:44:43;;;;;;;40.83;18.10;;;;;;;-142.91;100.00;56616.03;5059164;28;20202;-79
2024/01/14 00:47:10;;;;;;;37.73;16.00;;;;;;;-142.91;100.00;56616.03;5053884;28;20222;-77
2024/01/14 00:49:36;;;;;;;37.58;17.63;;;;;;;-142.91;100.00;56616.03;5057381;28;20325;-79
2024/01/14 00:52:04;;;;;;;32.37;17.30;;;;;;;-142.91;100.00;56616.03;5059341;28;20297;-78
2024/01/14 00:54:32;;;;;;;40.40;17.90;;;;;;;-142.91;100.00;56616.03;5061974;28;20344;-78
2024/01/14 00:56:59;;;;;;;40.33;16.73;;;;;;;-142.91;100.00;56616.03;5061845;28;20198;-78
2024/01/14 00:59:25;;;;;;;42.83;17.70;;;;;;;-142.91;100.00;56616.03;5061970;28;20996;-78
2024/01/14 01:01:52;;;;;;;33.63;14.70;;;;;;;-142.91;100.00;56616.03;5062961;28;20893;-80
2024/01/14 01:04:18;;;;;;;32.23;15.53;;;;;;;-142.91;100.00;56616.03;5054985;28;20245;-78
2024/01/14 01:06:45;;;;;;;37.80;16.87;;;;;;;-142.91;100.00;56616.03;5059879;28;20775;-80
2024/01/14 01:09:11;;;;;;;29.47;15.13;;;;;;;;;;5053120;28;20206;-79
2024/01/14 01:11:39;;;;;;;39.27;16.63;;;;;;;;;;5055030;28;20195;-79
2024/01/14 01:14:06;;;;;;;32.37;15.80;;;;;;;-142.91;100.00;56616.03;5056238;28;20233;-77
2024/01/14 01:16:33;;;;;;;29.07;14.43;;;;;;;;;;5060869;28;20230;-77
2024/01/14 01:19:00;;;;;;;34.35;17.52;;;;;;;-142.91;100.00;56616.03;5055509;28;20198;-81
2024/01/14 01:21:26;;;;;;;30.73;16.63;;;;;;;;;;5055466;28;20246;-77
2024/01/14 01:23:53;;;;;;;39.70;14.97;;;;;;;-142.91;100.00;56616.03;5057591;28;20627;-80
2024/01/14 01:26:19;;;;;;;33.77;15.60;;;;;;;-142.91;100.00;56616.03;5050391;28;20393;-79
2024/01/14 01:28:47;;;;;;;32.90;15.40;;;;;;;;;;5053808;28;20717;-77
2024/01/14 01:31:14;;;;;;;31.73;15.90;;;;;;;;;;5055492;28;20287;-81
2024/01/14 01:33:40;;;;;;;34.13;15.77;;;;;;;-142.91;100.00;56616.03;5058432;28;20210;-82
2024/01/14 01:36:07;;;;;;;30.20;15.77;;;;;;;-142.91;100.00;56616.03;5057348;28;20230;-79
2024/01/14 01:38:33;;;;;;;28.48;15.45;;;;;;;;;;5057847;28;20285;-78
2024/01/14 01:41:00;;;;;;;38.73;16.57;;;;;;;;;;5059736;28;20245;-77
2024/01/14 01:43:26;;;;;;;34.23;15.93;;;;;;;-142.91;100.00;56616.03;5062077;28;20222;-77
2024/01/14 01:45:56;;;;;;;31.03;14.80;;;;;;;;;;5052535;28;20281;-80
2024/01/14 01:48:22;;;;;;;31.80;15.27;;;;;;;;;;5057066;28;20233;-78
2024/01/14 01:50:49;;;;;;;38.97;16.13;;;;;;;;;;5059297;28;20334;-78
2024/01/14 01:53:17;;;;;;;37.45;16.80;;;;;;;-142.91;100.00;56616.03;5066187;28;20289;-73
2024/01/14 01:55:44;;;;;;;29.23;15.20;;;;;;;-142.91;100.00;56616.03;5062113;28;20664;-79
2024/01/14 01:58:11;;;;;;;34.77;16.67;;;;;;;;;;5062832;28;20289;-78
2024/01/14 02:00:38;;;;;;;31.50;16.13;;;;;;;;;;5059435;28;20778;-77
2024/01/14 02:03:09;;;;;;;35.33;16.13;;;;;;;-142.91;100.00;56616.03;5061955;28;20203;-77
2024/01/14 02:05:40;;;;;;;41.10;18.17;;;;;;;-142.91;100.00;56616.03;5060964;28;20199;-79
2024/01/14 02:08:07;;;;;;;42.87;20.30;;;;;;;-142.91;100.00;56616.03;5059884;28;20231;-77
2024/01/14 02:10:33;;;;;;;38.37;19.43;;;;;;;;;;5064508;28;20217;-77
2024/01/14 02:13:00;;;;;;;51.30;21.53;;;;;;;-142.91;100.00;56616.03;5065701;28;20237;-74
2024/01/14 02:15:26;;;;;;;43.70;19.97;;;;;;;;;;5062507;28;20585;-77
2024/01/14 02:17:53;;;;;;;43.53;18.40;;;;;;;;;;5059804;28;20223;-76
2024/01/14 02:20:21;;;;;;;42.60;19.17;;;;;;;-142.91;100.00;56616.03;5055737;28;20895;-78
2024/01/14 02:22:52;;;;;;;50.97;19.57;;;;;;;-142.91;100.00;56616.03;5060299;28;20231;-77
2024/01/14 02:25:20;;;;;;;39.40;18.90;;;;;;;;;;5061501;28;20205;-78
2024/01/14 02:27:47;;;;;;;44.50;21.77;;;;;;;-142.91;100.00;56616.03;5062501;28;20246;-72
2024/01/14 02:30:15;;;;;;;48.43;19.70;;;;;;;-142.91;100.00;56616.03;5062035;28;20198;-76
2024/01/14 02:32:41;;;;;;;43.30;20.33;;;;;;;-142.91;100.00;56616.03;5063530;28;20242;-81
2024/01/14 02:35:08;;;;;;;36.53;17.63;;;;;;;-142.91;100.00;56616.03;5060670;28;20242;-80
2024/01/14 02:37:37;;;;;;;38.33;18.33;;;;;;;;;;5068044;28;20266;-76
2024/01/14 02:40:04;;;;;;;36.70;18.17;;;;;;;-142.91;100.00;56616.03;5062958;28;20207;-76
2024/01/14 02:42:32;;;;;;;37.50;17.40;;;;;;;-142.91;100.00;56616.03;5064232;28;20612;-81
2024/01/14 02:44:59;;;;;;;35.45;18.90;;;;;;;;;;5062034;28;20239;-77
2024/01/14 02:47:26;;;;;;;43.00;18.03;;;;;;;-142.91;100.00;56616.03;5061451;28;20351;-79
2024/01/14 02:49:52;;;;;;;49.23;18.37;;;;;;;-142.91;100.00;56616.03;5062887;28;20252;-77
2024/01/14 02:52:19;;;;;;;34.53;17.63;;;;;;;;;;5062900;28;20230;-75
2024/01/14 02:54:45;;;;;;;33.87;17.03;;;;;;;-142.91;100.00;56616.03;5063224;28;20226;-75
2024/01/14 02:57:12;;;;;;;32.70;17.10;;;;;;;;;;5061881;28;20233;-78
2024/01/14 02:59:40;;;;;;;41.00;16.43;;;;;;;-142.91;100.00;56616.03;5064765;28;20237;-79
2024/01/14 03:02:07;;;;;;;41.80;17.67;;;;;;;-142.91;100.00;56616.03;5064993;28;20274;-76
2024/01/14 03:04:33;;;;;;;33.87;18.63;;;;;;;-142.91;100.00;56616.03;5066087;28;20241;-78
2024/01/14 03:07:00;;;;;;;41.60;17.40;;;;;;;-142.91;100.00;56616.03;5065548;28;20659;-74
2024/01/14 03:09:26;;;;;;;40.87;17.83;;;;;;;-142.91;100.00;56616.03;5066558;28;20241;-79
2024/01/14 03:11:53;;;;;;;37.90;17.92;;;;;;;-142.91;100.00;56616.03;5061727;28;20222;-76
2024/01/14 03:14:20;;;;;;;42.17;16.52;;;;;;;-142.91;100.00;56616.03;5065797;28;20234;-78
2024/01/14 03:16:47;;;;;;;40.43;17.33;;;;;;;-142.91;100.00;56616.03;5064462;28;20699;-75
2024/01/14 03:19:13;;;;;;;35.53;16.90;;;;;;;-142.91;100.00;56616.03;5065197;28;20226;-75
2024/01/14 03:21:40;;;;;;;38.13;16.85;;;;;;;-142.91;100.00;56616.03;5059994;28;20219;-78
2024/01/14 03:24:06;;;;;;;39.77;17.87;;;;;;;-142.91;100.00;56616.03;5059832;28;20631;-75
2024/01/14 03:26:33;;;;;;;33.97;16.65;;;;;;;-142.91;100.00;56616.03;5066509;28;20254;-80
2024/01/14 03:29:00;;;;;;;32.97;18.08;;;;;;;-142.91;100.00;56616.03;5066067;28;20581;-77
2024/01/14 03:31:26;;;;;;;44.63;18.85;;;;;;;;;;5060208;28;20237;-75
2024/01/14 03:33:54;;;;;;;40.70;18.80;;;;;;;-142.91;100.00;56616.03;5061247;28;20695;-78
2024/01/14 03:36:21;;;;;;;39.07;18.87;;;;;;;-142.91;100.00;56616.03;5058967;28;20234;-78
2024/01/14 03:38:47;;;;;;;40.90;21.10;;;;;;;-142.91;100.00;56616.03;5059107;28;20198;-75
2024/01/14 03:41:14;;;;;;;38.10;16.93;;;;;;;-142.91;100.00;56616.03;5065033;28;21516;-78
2024/01/14 03:43:41;;;;;;;38.40;18.37;;;;;;;-142.91;100.00;56616.03;5067028;28;20246;-77
2024/01/14 03:46:08;;;;;;;36.42;16.55;;;;;;;-142.91;100.00;56616.03;5061422;28;20238;-77
2024/01/14 03:48:35;;;;;;;39.67;18.53;;;;;;;;;;5064222;28;20592;-77
2024/01/14 03:51:03;;;;;;;40.47;17.33;;;;;;;-142.91;100.00;56616.03;5063640;28;20234;-78
2024/01/14 03:53:29;;;;;;;45.33;18.47;;;;;;;;;;5067742;28;20198;-75
2024/01/14 03:55:56;;;;;;;31.50;16.20;;;;;;;-142.91;100.00;56616.03;5063975;28;20227;-79
2024/01/14 03:58:22;;;;;;;37.20;18.80;;;;;;;-142.91;100.00;56616.03;5065663;28;20234;-77
2024/01/14 04:00:49;;;;;;;42.97;18.47;;;;;;;;;;5064724;28;20665;-77
2024/01/14 04:03:15;;;;;;;40.25;17.90;;;;;;;;;;5066415;28;20218;-75
2024/01/14 04:05:42;;;;;;;39.37;18.73;;;;;;;23.27;100.00;56616.03;5058200;28;20680;-78
2024/01/14 04:08:10;;;;;;;31.63;17.48;;;;;;;-142.91;100.00;56616.03;5062875;28;20238;-77
2024/01/14 04:10:36;;;;;;;33.40;17.80;;;;;;;-142.91;100.00;56616.03;5063574;28;20227;-76
2024/01/14 04:13:03;;;;;;;36.53;18.03;;;;;;;-142.91;100.00;56616.03;5064217;28;20678;-80
2024/01/14 04:15:30;;;;;;;43.07;19.00;;;;;;;-142.91;100.00;56616.03;5068746;28;20222;-76
2024/01/14 04:17:56;;;;;;;41.07;17.67;;;;;;;;;;5062333;28;20298;-76
2024/01/14 04:20:23;;;;;;;42.47;19.27;;;;;;;-142.91;100.00;56616.03;5057288;28;20207;-77
2024/01/14 04:22:49;;;;;;;36.87;18.30;;;;;;;;;;5058743;28;20239;-78
2024/01/14 04:25:17;;;;;;;38.10;16.87;;;;;;;-142.91;100.00;56616.03;5083529;22;20230;-78
2024/01/14 04:27:44;;;;;;;35.73;17.07;;;;;;;-142.91;100.00;56616.03;5060336;28;21389;-80
2024/01/14 04:30:11;;;;;;;34.08;16.55;;;;;;;-142.91;100.00;56616.03;5061238;28;20231;-76
2024/01/14 04:32:38;;;;;;;38.03;17.30;;;;;;;-142.91;100.00;56616.03;5061324;28;22078;-75
2024/01/14 04:35:05;;;;;;;34.67;16.37;;;;;;;-142.91;100.00;56616.03;5056924;28;20751;-76
2024/01/14 04:37:32;;;;;;;38.00;16.37;;;;;;;-142.91;100.00;56616.03;5063627;28;20233;-75
2024/01/14 04:39:58;;;;;;;41.50;17.20;;;;;;;-142.91;100.00;56616.03;5064494;28;20226;-77
2024/01/14 04:42:26;;;;;;;44.00;18.47;;;;;;;-142.91;100.00;56616.03;5063565;28;20262;-77
2024/01/14 04:44:53;;;;;;;49.37;17.33;;;;;;;-142.91;100.00;56616.03;5058624;28;20203;-81
2024/01/14 04:47:20;;;;;;;36.07;16.93;;;;;;;-142.91;100.00;56616.03;5061885;28;20616;-78
2024/01/14 04:49:46;;;;;;;35.70;16.67;;;;;;;-142.91;100.00;56616.03;5063961;28;20260;-76
2024/01/14 04:52:13;;;;;;;41.23;18.33;;;;;;;-142.91;100.00;56616.03;5060329;28;20256;-78
2024/01/14 04:54:40;;;;;;;35.63;16.30;;;;;;;-142.91;100.00;56616.03;5058679;28;20893;-76
2024/01/14 04:57:06;;;;;;;35.43;17.23;;;;;;;-142.91;100.00;56616.03;5060593;28;20235;-78
2024/01/14 04:59:34;;;;;;;37.80;16.63;;;;;;;-142.91;100.00;56616.03;5065834;28;20222;-76
2024/01/14 05:02:01;;;;;;;38.03;17.37;;;;;;;;;;5057280;28;20226;-73
2024/01/14 05:04:28;;;;;;;36.77;17.40;;;;;;;-142.91;100.00;56616.03;5060247;28;20256;-77
2024/01/14 05:06:55;;;;;;;34.87;18.13;;;;;;;-142.91;100.00;56616.03;5059426;28;20734;-78
2024/01/14 05:09:22;;;;;;;39.60;18.13;;;;;;;-142.91;100.00;56616.03;5060344;28;20237;-78
2024/01/14 05:11:48;;;;;;;36.60;17.53;;;;;;;-142.91;100.00;56616.03;5063850;28;20239;-74
2024/01/14 05:14:15;;;;;;;40.70;19.07;;;;;;;-142.91;100.00;56616.03;5062327;28;20256;-79
2024/01/14 05:16:43;;;;;;;45.63;19.60;;;;;;;-142.91;100.00;56616.03;5058688;28;20240;-79
2024/01/14 05:19:10;;;;;;;41.63;20.77;;;;;;;-142.91;100.00;56616.03;5058121;28;20757;-78
2024/01/14 05:21:37;;;;;;;41.63;18.63;;;;;;;-142.91;100.00;56616.03;5054540;28;20250;-79
2024/01/14 05:24:04;;;;;;;36.05;18.83;;;;;;;-142.91;100.00;56616.03;5048580;28;20631;-77
2024/01/14 05:26:30;;;;;;;43.77;20.60;;;;;;;-142.91;100.00;56616.03;5050868;28;20660;-77
2024/01/14 05:28:59;;;;;;;40.93;20.13;;;;;;;-142.91;100.00;56616.03;5052663;28;20318;-77
2024/01/14 05:31:26;;;;;;;42.53;21.63;;;;;;;-142.91;100.00;56616.03;5054688;28;20213;-80
2024/01/14 05:33:54;;;;;;;43.67;21.40;;;;;;;-142.91;100.00;56616.03;5053278;28;20268;-79
2024/01/14 05:36:20;;;;;;;54.17;24.13;;;;;;;-142.91;100.00;56616.03;5050553;28;20264;-76
2024/01/14 05:38:47;;;;;;;54.25;23.00;;;;;;;-142.91;100.00;56616.03;5051261;28;20222;-78
2024/01/14 05:41:14;;;;;;;49.53;24.57;;;;;;;-142.91;100.00;56616.03;5053510;28;20234;-80
2024/01/14 05:43:41;;;;;;;59.27;26.27;;;;;;;23.27;100.00;56616.03;5053200;28;20656;-80
2024/01/14 05:46:07;;;;;;;47.97;23.10;;;;;;;-142.91;100.00;56616.03;5051401;28;20282;-78
2024/01/14 05:48:34;;;;;;;50.58;23.75;;;;;;;-142.91;100.00;56616.03;5052173;28;20252;-78
2024/01/14 05:51:02;;;;;;;46.90;23.53;;;;;;;-142.91;100.00;56616.03;5053267;28;20661;-76
2024/01/14 05:53:29;;;;;;;52.60;24.45;;;;;;;-142.91;100.00;56616.03;5054301;28;20585;-79
2024/01/14 05:55:57;;;;;;;56.10;24.35;;;;;;;-142.91;100.00;56616.03;5053707;28;20229;-78
2024/01/14 05:58:24;;;;;;;51.25;24.70;;;;;;;-142.91;100.00;56616.03;5050537;28;20272;-76
2024/01/14 06:00:50;;;;;;;55.90;24.33;;;;;;;-142.91;100.00;56616.03;5049248;28;20227;-82
2024/01/14 06:03:17;;;;;;;47.60;23.30;;;;;;;-142.91;100.00;56616.03;5046540;28;20717;-78
2024/01/14 06:05:44;;;;;;;48.17;23.93;;;;;;;-142.91;100.00;56616.03;5054298;28;20202;-77
2024/01/14 06:08:12;;;;;;;57.07;24.87;;;;;;;;;;5054772;28;20293;-77
2024/01/14 06:10:38;;;;;;;43.78;21.65;;;;;;;-142.91;100.00;56616.03;5048908;28;20310;-81
2024/01/14 06:13:05;;;;;;;45.50;22.70;;;;;;;-142.91;100.00;56616.03;5047110;28;20345;-81
2024/01/14 06:15:32;;;;;;;48.58;21.83;;;;;;;-142.91;100.00;56616.03;5050931;28;20289;-79
2024/01/14 06:17:59;;;;;;;46.10;22.30;;;;;;;-142.91;100.00;56616.03;5049542;28;20282;-80
2024/01/14 06:20:25;;;;;;;56.77;24.40;;;;;;;-142.91;100.00;56616.03;5045176;28;20206;-79
2024/01/14 06:22:52;;;;;;;43.42;21.48;;;;;;;-142.91;100.00;56616.03;5046580;28;20311;-80
2024/01/14 06:25:20;;;;;;;54.90;25.38;;;;;;;-142.91;100.00;56616.03;5047270;28;20317;-79
2024/01/14 06:27:47;;;;;;;46.50;23.80;;;;;;;-142.91;100.00;56616.03;5042573;28;20598;-80
2024/01/14 06:30:15;;;;;;;50.10;24.35;;;;;;;-142.91;100.00;56616.03;5046393;28;20285;-79
2024/01/14 06:32:41;;;;;;;52.65;25.27;;;;;;;;;;5047066;28;20257;-78
2024/01/14 06:35:09;;;;;;;48.47;25.73;;;;;;;-142.91;100.00;56616.03;5052909;28;20286;-79
2024/01/14 06:37:37;;;;;;;49.17;23.92;;;;;;;-142.91;100.00;56616.03;5053270;28;20210;-81
2024/01/14 06:40:05;;;;;;;51.38;26.10;;;;;;;-142.91;100.00;56616.03;5050128;28;20199;-75
2024/01/14 06:42:33;;;;;;;51.72;25.65;;;;;;;-142.91;100.00;56616.03;5051418;28;20214;-78
2024/01/14 06:44:59;;;;;;;49.13;25.05;;;;;;;-142.91;100.00;56616.03;5053730;28;20213;-79
2024/01/14 06:47:26;;;;;;;55.75;25.95;;;;;;;;;;5054435;28;20231;-82
2024/01/14 06:49:54;;;;;;;51.67;26.33;;;;;;;;;;5050382;28;20294;-79
2024/01/14 06:52:22;;;;;;;50.00;25.92;;;;;;;;;;5049665;28;20207;-81
2024/01/14 06:54:49;;;;;;;54.47;27.35;;;;;;;-142.91;100.00;56616.03;5054088;28;20226;-79
2024/01/14 06:57:15;;;;;;;55.28;25.10;;;;;;;-142.91;100.00;56616.03;5059042;28;20281;-78
2024/01/14 06:59:44;;;;;;;51.90;27.02;;;;;;;-142.91;100.00;56616.03;5051351;28;20285;-81
2024/01/14 07:02:11;;;;;;;56.30;27.60;;;;;;;-142.91;100.00;56616.03;5049822;28;20202;-82
2024/01/14 07:04:38;;;;;;;63.13;29.17;;;;;;;-142.91;100.00;56616.03;5050975;28;20290;-78
2024/01/14 07:07:04;;;;;;;55.72;27.80;;;;;;;-142.91;100.00;56616.03;5052859;28;20290;-80
2024/01/14 07:09:31;;;;;;;62.13;27.38;;;;;;;;;;5053578;28;20791;-79
2024/01/14 07:11:57;;;;;;;52.97;26.70;;;;;;;-142.91;100.00;56616.03;5049909;28;20234;-79
2024/01/14 07:14:24;;;;;;;58.10;28.05;;;;;;;-142.91;100.00;56616.03;5050838;28;20295;-80
2024/01/14 07:16:52;;;;;;;55.70;26.90;;;;;;;-142.91;100.00;56616.03;5053536;28;20648;-82
2024/01/14 07:19:19;;;;;;;58.83;29.50;;;;;;;-142.91;100.00;56616.03;5048719;28;20223;-77
2024/01/14 07:21:45;;;;;;;57.63;28.90;;;;;;;23.26;100.00;56616.03;5054388;28;20783;-80
2024/01/14 07:24:12;;;;;;;63.50;31.17;;;;;;;23.25;100.00;56616.03;5054554;28;20234;-79
2024/01/14 07:26:39;;;;;;;58.80;29.90;;;;;;;;;;5049083;28;20245;-79
2024/01/14 07:29:05;;;;;;;56.63;29.52;;;;;;;23.41;100.00;56616.03;5051084;28;20313;-80
2024/01/14 07:31:32;;;;;;;55.88;30.02;;;;;;;-142.91;100.00;56616.03;5053208;28;20234;-77
2024/01/14 07:34:00;;;;;;;63.67;34.50;;;;;;;-142.91;100.00;56616.03;5050599;28;20295;-78
2024/01/14 07:36:26;;;;;;;69.13;38.53;;;;;;;-142.91;100.00;56616.03;5052809;28;20198;-78
2024/01/14 07:38:55;;;;;;;78.57;38.85;;;;;;;-142.91;100.00;56616.03;5054941;28;20286;-78
2024/01/14 07:41:22;;;;;;;80.82;41.15;;;;;;;-142.91;100.00;56616.03;5049547;28;20203;-81
2024/01/14 07:43:48;;;;;;;81.60;42.40;;;;;;;-142.91;100.00;56616.03;5056163;28;20287;-78
2024/01/14 07:46:15;;;;;;;83.43;41.63;;;;;;;-142.91;100.00;56616.03;5050059;28;20639;-79
2024/01/14 07:48:42;;;;;;;74.18;39.20;;;;;;;-142.91;100.00;56616.03;5053801;28;20272;-76
2024/01/14 07:51:10;;;;;;;93.18;45.53;;;;;;;;;;5049443;28;20221;-79
2024/01/14 07:53:37;;;;;;;99.68;51.85;;;;;;;-142.91;100.00;56616.03;5049033;28;21653;-79
2024/01/14 07:56:05;;;;;;;95.50;49.20;;;;;;;23.27;100.00;56616.03;5052021;28;20206;-80
2024/01/14 07:58:31;;;;;;;101.95;51.03;;;;;;;23.27;100.00;56616.03;5046820;28;20286;-74
2024/01/14 08:00:58;;;;;;;105.25;51.05;;;;;;;23.27;100.00;56616.03;5048205;28;20410;-75
2024/01/14 08:03:25;;;;;;;106.30;48.30;;;;;;;23.26;100.00;56616.03;5050012;28;20898;-81
2024/01/14 08:05:52;;;;;;;88.47;44.75;;;;;;;23.25;100.00;56616.03;5051207;28;20298;-75
2024/01/14 08:08:20;;;;;;;92.43;44.20;;;;;;;-142.91;100.00;56616.03;5049886;28;20255;-78
2024/01/14 08:10:48;;;;;;;80.70;42.03;;;;;;;23.26;100.00;56616.03;5047567;28;20250;-75
2024/01/14 08:13:15;;;;;;;85.75;42.45;;;;;;;23.26;100.00;56616.03;5046570;28;20203;-77
2024/01/14 08:15:42;;;;;;;91.82;41.97;;;;;;;23.25;100.00;56616.03;5047479;28;20256;-77
2024/01/14 08:18:08;;;;;;;80.25;38.58;;;;;;;23.26;100.00;56616.03;5050873;28;20681;-81
2024/01/14 08:20:35;;;;;;;82.57;36.45;;;;;;;-142.91;100.00;56616.03;5045007;28;20291;-76
2024/01/14 08:23:02;;;;;;;71.53;37.33;;;;;;;23.26;100.00;56616.03;5046939;28;20290;-74
2024/01/14 08:25:30;;;;;;;76.75;37.80;;;;;;;-142.91;100.00;56616.03;5046453;28;20268;-79
2024/01/14 08:27:59;;;;;;;77.28;37.80;;;;;;;23.27;100.00;56616.03;5047467;28;20274;-79
2024/01/14 08:30:26;;;;;;;81.82;38.97;;;;;;;-142.91;100.00;56616.03;5051225;28;20208;-79
2024/01/14 08:32:53;;;;;;;75.97;36.20;;;;;;;-142.91;100.00;56616.03;5054631;28;20289;-78
2024/01/14 08:35:19;;;;;;;62.80;34.95;;;;;;;-142.91;100.00;56616.03;5053187;28;20285;-77
2024/01/14 08:37:47;;;;;;;71.95;35.80;;;;;;;-142.91;100.00;56616.03;5053631;28;20667;-77
2024/01/14 08:40:14;;;;;;;59.40;31.88;;;;;;;-142.91;100.00;56616.03;5054325;28;20198;-78
2024/01/14 08:42:44;;;;;;;60.17;32.85;;;;;;;-142.91;100.00;56616.03;5046656;28;20290;-78
2024/01/14 08:45:12;;;;;;;62.75;31.15;;;;;;;-142.91;100.00;56616.03;5046806;28;20206;-76
2024/01/14 08:47:38;;;;;;;48.03;27.33;;;;;;;-142.91;87.16;56616.03;5049259;28;20213;-76
2024/01/14 08:50:06;;;;;;;52.13;29.05;;;;;;;;;;5049032;28;20734;-75
2024/01/14 08:52:33;;;;;;;59.20;29.27;;;;;;;;;;5055075;28;20204;-76
2024/01/14 08:54:59;;;;;;;59.65;31.83;;;;;;;;;;5049889;28;20302;-75
2024/01/14 08:57:26;;;;;;;80.45;38.05;;;;;;;23.27;100.00;56616.03;5046324;28;20274;-76
2024/01/14 08:59:54;;;;;;;85.53;43.78;;;;;;;23.26;100.00;56616.03;5047586;28;20294;-72
2024/01/14 09:02:20;;;;;;;88.22;43.78;;;;;;;23.25;100.00;56616.03;5050390;28;20710;-74
2024/01/14 09:04:47;;;;;;;66.63;32.47;;;;;;;23.26;100.00;56616.03;5050116;28;20237;-76
2024/01/14 09:07:13;;;;;;;56.03;27.92;;;;;;;23.26;100.00;56616.03;5053556;28;20325;-76
2024/01/14 09:09:40;;;;;;;52.58;25.15;;;;;;;23.25;100.00;56616.03;5049295;28;20790;-78
2024/01/14 09:12:07;;;;;;;49.00;24.58;;;;;;;-142.91;100.00;56616.03;5046500;28;20239;-76
2024/01/14 09:14:34;;;;;;;44.65;25.48;;;;;;;23.25;100.00;56616.03;5047742;28;20200;-77
2024/01/14 09:17:02;;;;;;;50.35;25.30;;;;;;;23.27;100.00;56616.03;5047347;28;20286;-76
2024/01/14 09:19:28;;;;;;;44.10;25.23;;;;;;;23.26;100.00;56616.03;5046559;28;20230;-74
2024/01/14 09:21:55;;;;;;;43.92;24.30;;;;;;;23.26;100.00;56616.03;5046828;28;20258;-77
2024/01/14 09:24:21;;;;;;;43.67;23.27;;;;;;;23.26;100.00;56616.03;5045562;28;20246;-76
2024/01/14 09:26:48;;;;;;;45.35;23.30;;;;;;;-142.91;100.00;56616.03;5047003;28;20250;-72
2024/01/14 09:29:15;;;;;;;43.80;21.35;;;;;;;23.25;100.00;56616.03;5046972;28;20222;-76
2024/01/14 09:31:41;;;;;;;44.92;23.20;;;;;;;-142.91;100.00;56616.03;5049874;28;20684;-75
2024/01/14 09:34:09;;;;;;;44.58;23.77;;;;;;;23.26;100.00;56616.03;5049491;28;20249;-75
2024/01/14 09:36:38;;;;;;;39.47;22.42;;;;;;;-142.91;100.00;56616.03;5046969;28;20227;-74
2024/01/14 09:39:04;;;;;;;37.47;22.45;;;;;;;23.25;100.00;56616.03;5046603;28;20201;-73
2024/01/14 09:41:37;;;;;;;39.70;21.27;;;;;;;23.25;100.00;56616.03;5051191;28;20639;-76
2024/01/14 09:44:05;;;;;;;35.83;20.33;;;;;;;-142.91;100.00;56616.03;5047222;28;20289;-73
2024/01/14 09:46:33;;;;;;;48.33;20.65;;;;;;;-142.91;100.00;56616.03;5047253;28;20199;-74
2024/01/14 09:49:02;;;;;;;44.28;22.58;;;;;;;-142.91;100.00;56616.03;5049940;28;20226;-75
2024/01/14 09:51:30;;;;;;;37.45;20.02;;;;;;;23.25;100.00;56616.03;5050820;28;20261;-73
2024/01/14 09:54:01;;;;;;;42.63;21.42;;;;;;;23.26;100.00;56616.03;5045844;28;20199;-73
2024/01/14 09:56:32;;;;;;;40.17;20.90;;;;;;;-142.91;100.00;56616.03;5045139;28;20203;-71
2024/01/14 09:59:00;;;;;;;49.15;22.08;;;;;;;-142.91;100.00;56616.03;5046254;28;20199;-73
2024/01/14 10:01:31;;;;;;;38.63;20.05;;;;;;;-142.91;100.00;56616.03;5045855;28;20695;-74
2024/01/14 10:03:59;;;;;;;31.27;17.75;;;;;;;23.25;100.00;56616.03;5045861;28;20584;-76
2024/01/14 10:06:27;;;;;;;27.58;16.67;;;;;;;-142.91;100.00;56616.03;5048796;28;20695;-72
2024/01/14 10:08:55;;;;;;;30.80;17.48;;;;;;;23.25;100.00;56616.03;5045605;28;20313;-76
2024/01/14 10:11:22;;;;;;;37.00;20.02;;;;;;;-142.91;100.00;56616.03;5054862;28;20302;-74
2024/01/14 10:13:49;;;;;;;29.33;18.60;;;;;;;23.25;100.00;56616.03;5057357;28;20229;-76
2024/01/14 10:16:16;;;;;;;35.78;19.92;;;;;;;-142.91;100.00;56616.03;5053983;28;20286;-74
2024/01/14 10:18:44;;;;;;;37.00;19.90;;;;;;;-142.91;100.00;56616.03;5052428;28;20231;-75
2024/01/14 10:21:11;;;;;;;39.83;20.02;;;;;;;-142.91;100.00;56616.03;5058877;28;20226;-74
2024/01/14 10:23:39;;;;;;;36.10;19.95;;;;;;;;;;5055475;28;20213;-76
2024/01/14 10:26:09;;;;;;;38.80;19.80;;;;;;;23.25;100.00;56616.03;5053763;28;20227;-75
2024/01/14 10:28:36;;;;;;;39.42;19.63;;;;;;;-142.91;100.00;56616.03;5053434;28;20199;-75
2024/01/14 10:31:04;;;;;;;41.17;20.38;;;;;;;-142.91;100.00;56616.03;5048195;28;20210;-77
2024/01/14 10:33:32;;;;;;;45.90;21.55;;;;;;;-142.91;100.00;56616.03;5048410;28;20213;-75
2024/01/14 10:35:59;;;;;;;40.05;19.25;;;;;;;-142.91;100.00;56616.03;5049099;28;20293;-76
2024/01/14 10:38:25;;;;;;;36.60;18.63;;;;;;;-142.91;100.00;56616.03;5049114;28;20203;-77
2024/01/14 10:40:52;;;;;;;41.70;20.08;;;;;;;-142.91;100.00;56616.03;5048337;28;20286;-77
2024/01/14 10:43:24;;;;;;;44.13;21.33;;;;;;;-142.91;100.00;56616.03;5049388;28;20269;-77
2024/01/14 10:45:51;;;;;;;43.28;20.17;;;;;;;-142.91;100.00;56616.03;5048919;28;20203;-76
2024/01/14 10:48:24;;;;;;;45.05;21.20;;;;;;;-142.91;100.00;56616.03;5049430;28;20293;-78
2024/01/14 10:50:54;;;;;;;38.53;21.55;;;;;;;-142.91;100.00;56616.03;5048046;28;20310;-75
2024/01/14 10:53:23;;;;;;;41.15;20.00;;;;;;;-142.91;100.00;56616.03;5049715;28;20648;-78
2024/01/14 10:55:51;;;;;;;40.20;20.95;;;;;;;;;;5049670;28;20209;-79
2024/01/14 10:58:22;;;;;;;38.35;20.25;;;;;;;;;;5049103;28;20294;-75
2024/01/14 11:00:51;;;;;;;53.85;21.13;;;;;;;-142.91;100.00;56616.03;5048230;28;20278;-78
2024/01/14 11:03:18;;;;;;;39.22;19.75;;;;;;;-142.91;100.00;56616.03;5049082;28;20195;-77
2024/01/14 11:05:44;;;;;;;37.47;19.67;;;;;;;;;;5048017;28;20301;-78
2024/01/14 11:08:12;;;;;;;41.92;19.67;;;;;;;-142.91;100.00;56616.03;5048597;28;20238;-77
2024/01/14 11:10:40;;;;;;;45.50;19.90;;;;;;;-142.91;100.00;56616.03;5049163;28;20616;-78
2024/01/14 11:13:22;;;;;;;36.03;19.52;;;;;;;23.25;100.00;56616.03;5049522;28;20751;-77
2024/01/14 11:15:55;;;;;;;38.75;19.25;;;;;;;;;;5048451;28;20228;-77
2024/01/14 11:18:27;;;;;;;38.72;20.38;;;;;;;-142.91;100.00;56616.03;5048459;28;20293;-78
2024/01/14 11:21:02;;;;;;;45.38;19.38;;;;;;;-142.91;100.00;56616.03;5049242;28;20318;-78